Time;durP1;ratioP1;P1;durP2;ratioP2;P2;SDS_P1;SDS_P2;PMS_P1;PMS_P2;Temp;Humidity;BMP_temperature;BMP_pressure;BME280_temperature;BME280_humidity;BME280_pressure;Samples;Min_cycle;Max_cycle;Signal;HPM_P1;HPM_P2
2022/01/25 00:27:50;;;;;;;56.17;20.50;;;0.80;99.90;;;;;;20825094;28;20029;-72
2022/01/25 00:37:51;;;;;;;48.90;20.90;;;0.90;99.90;;;;;;20824605;28;20063;-72
2022/01/25 00:47:52;;;;;;;52.25;21.30;;;0.90;99.90;;;;;;20824195;28;20029;-72
2022/01/25 00:57:53;;;;;;;57.80;20.85;;;0.80;99.90;;;;;;20836844;28;20498;-72
2022/01/25 01:07:53;;;;;;;57.35;21.13;;;0.80;99.90;;;;;;20839681;28;20049;-72
2022/01/25 01:49:06;;;;;;;61.28;21.67;;;0.80;99.90;;;;;;20836682;28;20060;-73
2022/01/25 01:59:11;;;;;;;58.50;22.27;;;0.70;99.90;;;;;;20835852;28;20526;-72
2022/01/25 02:09:12;;;;;;;50.28;19.98;;;0.70;99.90;;;;;;20816918;28;20042;-72
2022/01/25 02:29:33;;;;;;;63.20;22.92;;;0.60;99.90;;;;;;20833526;28;20052;-72
2022/01/25 02:39:37;;;;;;;65.15;23.38;;;0.60;99.90;;;;;;20816210;28;20033;-72
2022/01/25 02:49:38;;;;;;;61.38;23.67;;;0.50;99.90;;;;;;20832019;28;20507;-72
2022/01/25 02:59:39;;;;;;;68.00;24.77;;;0.50;99.90;;;;;;20831329;28;20087;-72
2022/01/25 03:09:41;;;;;;;60.78;24.55;;;0.30;99.90;;;;;;20830303;28;20040;-72
2022/01/25 03:19:49;;;;;;;69.97;24.42;;;0.40;99.90;;;;;;20828551;28;20037;-72
2022/01/25 03:29:49;;;;;;;75.38;26.27;;;0.40;99.90;;;;;;20828863;28;20040;-72
2022/01/25 03:39:50;;;;;;;77.38;26.88;;;0.30;99.90;;;;;;20809235;28;20029;-72
2022/01/25 03:49:52;;;;;;;75.05;27.83;;;0.00;99.90;;;;;;20826931;28;20025;-72
2022/01/25 04:00:00;;;;;;;80.82;27.20;;;0.00;99.90;;;;;;20826663;28;20042;-72
2022/01/25 04:10:01;;;;;;;77.80;28.33;;;-0.10;99.90;;;;;;20822966;28;20111;-72
2022/01/25 04:30:19;;;;;;;88.05;29.60;;;-0.10;99.90;;;;;;20807147;28;20035;-72
2022/01/25 05:00:40;;;;;;;78.65;27.25;;;0.10;99.90;;;;;;20823873;28;20038;-73
2022/01/25 05:10:50;;;;;;;75.97;26.48;;;0.00;99.90;;;;;;20821477;28;20061;-73
2022/01/25 05:31:10;;;;;;;87.30;28.05;;;-0.10;99.90;;;;;;20822702;28;20041;-72
2022/01/25 05:41:13;;;;;;;90.85;29.52;;;0.00;99.90;;;;;;20830048;28;20175;-71
2022/01/25 05:51:14;;;;;;;77.63;26.70;;;-0.10;99.90;;;;;;20836492;28;20491;-72
2022/01/25 06:01:18;;;;;;;71.22;23.40;;;-0.20;99.90;;;;;;20835825;28;20444;-72
2022/01/25 06:11:20;;;;;;;69.30;23.55;;;-0.30;99.90;;;;;;20835025;28;20104;-72
2022/01/25 06:21:21;;;;;;;82.03;26.98;;;-0.40;99.90;;;;;;20833011;28;20083;-72
2022/01/25 06:31:23;;;;;;;74.38;24.40;;;-0.30;99.90;;;;;;20814849;28;20029;-72
2022/01/25 06:41:24;;;;;;;82.63;24.95;;;-0.30;99.90;;;;;;20831958;28;20036;-72
2022/01/25 06:51:24;;;;;;;88.90;27.77;;;-0.40;99.90;;;;;;20830310;28;20034;-72
2022/01/25 07:01:25;;;;;;;99.93;29.05;;;-0.40;99.90;;;;;;20830920;28;20040;-72
2022/01/25 07:11:26;;;;;;;97.15;27.05;;;-0.40;99.90;;;;;;20828448;28;20029;-72
2022/01/25 07:21:27;;;;;;;82.78;26.50;;;-0.40;99.90;;;;;;20830095;22;20080;-74
2022/01/25 07:31:28;;;;;;;89.72;26.85;;;-0.30;99.90;;;;;;20812079;28;20428;-75
2022/01/25 07:41:29;;;;;;;80.20;25.80;;;-0.30;99.90;;;;;;20828953;28;20053;-73
2022/01/25 07:51:30;;;;;;;97.28;25.48;;;-0.30;99.90;;;;;;20828250;28;20065;-74
2022/01/25 08:01:31;;;;;;;88.28;25.05;;;-0.30;99.90;;;;;;20827299;28;20524;-74
2022/01/25 08:11:32;;;;;;;74.78;25.65;;;-0.20;99.90;;;;;;20828018;28;20061;-74
2022/01/25 08:21:33;;;;;;;73.85;25.00;;;-0.30;99.90;;;;;;20831236;28;20083;-74
2022/01/25 08:31:35;;;;;;;83.90;26.75;;;-0.10;99.90;;;;;;20825908;28;20033;-73
2022/01/25 08:41:36;;;;;;;89.72;27.55;;;-0.10;99.90;;;;;;20808789;28;20065;-74
2022/01/25 08:51:37;;;;;;;82.68;25.60;;;0.00;99.90;;;;;;20807243;28;20083;-74
2022/01/25 09:01:39;;;;;;;95.75;28.55;;;0.10;99.90;;;;;;20806882;28;20033;-74
2022/01/25 09:11:41;;;;;;;93.68;26.42;;;0.20;99.90;;;;;;20825077;28;20037;-73
2022/01/25 09:21:42;;;;;;;86.88;29.15;;;0.30;99.90;;;;;;20839476;28;20029;-73
2022/01/25 09:31:43;;;;;;;84.75;30.20;;;0.40;99.90;;;;;;20838969;28;20373;-74
2022/01/25 09:41:44;;;;;;;83.25;28.98;;;0.60;99.90;;;;;;20820429;28;20064;-74
2022/01/25 09:51:47;;;;;;;78.82;27.85;;;0.60;99.90;;;;;;20837775;28;20065;-75
2022/01/25 10:01:48;;;;;;;70.07;27.20;;;1.00;99.90;;;;;;20837268;28;20033;-74
2022/01/25 10:11:49;;;;;;;87.93;29.85;;;1.20;99.90;;;;;;20835949;28;20029;-74
2022/01/25 10:21:51;;;;;;;67.25;26.48;;;1.10;99.90;;;;;;20816964;28;20045;-73
2022/01/25 10:32:02;;;;;;;80.03;30.38;;;1.40;99.90;;;;;;20835167;28;20395;-75
2022/01/25 10:42:23;;;;;;;;;;;1.70;99.90;;;;;;20840954;28;20033;-73
2022/01/25 10:52:27;;;;;;;102.82;40.50;;;2.60;99.90;;;;;;20832949;28;20004;-74
2022/01/25 11:02:28;;;;;;;87.90;30.90;;;2.90;99.90;;;;;;20838199;28;20037;-74
2022/01/25 11:12:36;;;;;;;77.00;28.15;;;3.10;99.90;;;;;;20814455;28;20511;-74
2022/01/25 11:22:37;;;;;;;74.00;27.63;;;4.10;99.90;;;;;;20829972;28;20049;-75
2022/01/25 11:32:41;;;;;;;66.22;26.25;;;4.40;99.90;;;;;;20829372;28;20026;-74
2022/01/25 11:42:47;;;;;;;69.45;28.73;;;5.80;99.90;;;;;;20828524;28;20044;-74
2022/01/25 11:52:54;;;;;;;74.13;27.83;;;5.10;99.90;;;;;;20794696;28;20511;-74
2022/01/25 12:02:56;;;;;;;62.22;25.48;;;5.40;99.90;;;;;;20827911;28;20025;-75
2022/01/25 12:13:09;;;;;;;69.22;27.40;;;7.50;99.90;;;;;;20810275;28;20033;-74
2022/01/25 12:23:12;;;;;;;66.72;27.85;;;7.50;99.90;;;;;;20826227;28;20037;-74
2022/01/25 12:33:23;;;;;;;67.22;28.70;;;7.50;99.90;;;;;;20791892;28;20033;-75
2022/01/25 12:43:53;;;;;;;55.87;25.47;;;7.30;99.90;;;;;;20828504;28;20091;-75
2022/01/25 12:53:57;;;;;;;63.38;27.58;;;8.00;99.90;;;;;;20837193;28;20518;-75
2022/01/25 13:04:00;;;;;;;62.70;26.20;;;9.10;99.90;;;;;;20841482;28;20087;-75
2022/01/25 13:14:14;;;;;;;64.95;29.13;;;8.40;99.90;;;;;;20840775;28;20480;-74
2022/01/25 13:24:18;;;;;;;59.33;26.05;;;8.60;99.90;;;;;;20730624;22;20074;-73
2022/01/25 13:34:23;;;;;;;64.22;27.58;;;7.40;99.90;;;;;;20675013;28;20093;-74
2022/01/25 13:54:43;;;;;;;61.50;27.13;;;8.10;99.90;;;;;;20660752;28;20030;-74
2022/01/25 14:04:44;;;;;;;63.53;25.67;;;8.10;99.90;;;;;;20654840;28;20042;-74
2022/01/25 14:25:08;;;;;;;60.83;26.67;;;7.60;99.90;;;;;;20659705;28;20038;-72
2022/01/25 14:35:11;;;;;;;59.08;26.30;;;7.50;99.90;;;;;;20640327;28;20027;-73
2022/01/25 14:45:20;;;;;;;62.97;27.20;;;7.30;99.90;;;;;;20631267;28;20039;-73
2022/01/25 14:55:23;;;;;;;58.10;25.38;;;6.90;99.90;;;;;;20620053;28;20058;-73
2022/01/25 15:05:24;;;;;;;54.80;24.83;;;7.20;99.90;;;;;;20568436;28;20046;-73
2022/01/25 15:15:29;;;;;;;59.73;24.90;;;7.10;99.90;;;;;;20566832;28;20026;-73
2022/01/25 15:25:30;;;;;;;65.43;25.33;;;6.60;99.90;;;;;;20641946;28;20042;-72
2022/01/25 15:35:31;;;;;;;56.23;23.43;;;6.50;99.90;;;;;;20646029;28;20595;-73
2022/01/25 15:45:43;;;;;;;60.17;25.53;;;6.50;99.90;;;;;;20646343;28;20030;-72
2022/01/25 15:55:44;;;;;;;64.97;25.67;;;5.90;99.90;;;;;;20644343;28;20038;-73
2022/01/25 16:05:46;;;;;;;57.67;23.52;;;5.00;99.90;;;;;;20644631;28;20038;-73
2022/01/25 16:15:47;;;;;;;62.65;24.77;;;4.60;99.90;;;;;;20643879;28;20117;-73
2022/01/25 16:25:48;;;;;;;61.17;23.02;;;4.20;99.90;;;;;;20642540;28;20045;-73
2022/01/25 16:35:49;;;;;;;66.22;25.98;;;3.70;99.90;;;;;;20643395;28;20667;-73
2022/01/25 16:45:50;;;;;;;;;;;3.00;99.90;;;;;;20681863;28;20038;-73
2022/01/25 16:55:51;;;;;;;80.45;24.55;;;2.50;99.90;;;;;;20645047;28;19984;-73
2022/01/25 17:05:52;;;;;;;75.50;28.75;;;2.30;99.90;;;;;;20641739;28;20069;-73
2022/01/25 17:15:53;;;;;;;66.45;23.88;;;1.70;99.90;;;;;;20641371;28;20081;-76
2022/01/25 17:25:54;;;;;;;68.10;28.10;;;1.40;99.90;;;;;;20640678;28;20085;-73
2022/01/25 17:35:55;;;;;;;88.57;32.13;;;1.30;99.90;;;;;;20646135;28;20113;-73
2022/01/25 17:45:57;;;;;;;94.32;32.60;;;1.00;99.90;;;;;;20662555;28;20640;-74
2022/01/25 17:55:57;;;;;;;79.78;29.55;;;0.80;99.90;;;;;;20613435;28;20037;-73
2022/01/25 18:05:58;;;;;;;72.60;25.70;;;0.60;99.90;;;;;;20584691;28;20039;-73
2022/01/25 18:16:00;;;;;;;75.55;25.98;;;0.50;99.90;;;;;;20626018;28;20034;-74
2022/01/25 18:36:28;;;;;;;65.80;24.45;;;0.20;99.90;;;;;;20644149;28;20047;-73
2022/01/25 18:46:29;;;;;;;96.68;37.25;;;0.10;99.90;;;;;;20623248;28;20084;-74
2022/01/25 18:56:31;;;;;;;74.20;26.13;;;0.00;99.90;;;;;;20657593;28;20563;-73
2022/01/25 19:06:32;;;;;;;64.63;24.88;;;-0.10;99.90;;;;;;20668561;28;20425;-73
2022/01/25 19:16:33;;;;;;;74.38;25.45;;;0.00;99.90;;;;;;20656904;28;20093;-72
2022/01/25 19:26:34;;;;;;;63.25;23.30;;;-0.20;99.90;;;;;;20694710;22;20441;-76
2022/01/25 19:36:35;;;;;;;58.83;21.90;;;-0.20;99.90;;;;;;20729543;28;20037;-76
2022/01/25 19:46:36;;;;;;;59.28;21.20;;;-0.10;99.90;;;;;;20747008;28;20030;-76
2022/01/25 19:56:38;;;;;;;49.20;20.08;;;-0.10;99.90;;;;;;20749519;28;20042;-76
2022/01/25 20:06:39;;;;;;;58.85;21.70;;;0.00;99.90;;;;;;20751284;28;20033;-76
2022/01/25 20:16:46;;;;;;;61.50;22.98;;;-0.40;99.90;;;;;;20749514;28;20033;-76
2022/01/25 20:36:50;;;;;;;57.65;20.15;;;-1.00;99.90;;;;;;20744426;28;20038;-75
2022/01/25 20:46:51;;;;;;;46.30;18.27;;;-1.10;99.90;;;;;;20726298;28;20030;-77
2022/01/25 20:56:52;;;;;;;62.25;19.75;;;-1.00;99.90;;;;;;20731801;28;20045;-75
2022/01/25 21:06:54;;;;;;;57.60;19.33;;;-0.90;99.90;;;;;;20797344;28;20037;-76
2022/01/25 21:16:55;;;;;;;58.50;19.60;;;-1.20;99.90;;;;;;20755105;28;20653;-76
2022/01/25 21:27:00;;;;;;;55.67;20.52;;;-1.30;99.90;;;;;;20755082;28;20034;-78
2022/01/25 21:37:01;;;;;;;55.72;18.55;;;-1.20;99.90;;;;;;20744774;28;20038;-77
2022/01/25 21:47:02;;;;;;;61.38;19.70;;;-1.30;99.90;;;;;;20758659;28;20080;-76
2022/01/25 21:57:03;;;;;;;52.22;18.45;;;-1.30;99.90;;;;;;20745218;28;20038;-75
2022/01/25 22:07:09;;;;;;;50.45;16.45;;;-1.50;99.90;;;;;;20720036;28;20036;-77
2022/01/25 22:17:12;;;;;;;46.97;15.85;;;-1.60;99.90;;;;;;20701952;28;20499;-76
2022/01/25 22:27:13;;;;;;;44.88;14.88;;;-1.80;99.90;;;;;;20748604;28;20042;-76
2022/01/25 22:37:13;;;;;;;49.17;16.40;;;-2.00;99.90;;;;;;20752389;28;20161;-76
2022/01/25 22:47:15;;;;;;;49.83;16.70;;;-2.10;99.90;;;;;;20751705;28;20265;-76
2022/01/25 22:57:16;;;;;;;47.97;18.75;;;-2.20;99.90;;;;;;20736100;28;20088;-77
2022/01/25 23:07:22;;;;;;;71.80;22.17;;;-2.20;99.90;;;;;;20749938;28;20057;-76
2022/01/25 23:17:23;;;;;;;89.95;27.65;;;-2.00;99.90;;;;;;20731540;28;20030;-76
2022/01/25 23:27:24;;;;;;;89.60;28.02;;;-1.60;99.90;;;;;;20749185;28;20041;-77
2022/01/25 23:37:28;;;;;;;125.28;31.02;;;-1.30;99.90;;;;;;20746673;28;20100;-77
2022/01/25 23:47:34;;;;;;;96.05;28.73;;;-1.20;99.90;;;;;;20748772;28;20040;-77
